Time;durP1;ratioP1;P1;durP2;ratioP2;P2;SDS_P1;SDS_P2;PMS_P1;PMS_P2;Temp;Humidity;BMP_temperature;BMP_pressure;BME280_temperature;BME280_humidity;BME280_pressure;Samples;Min_cycle;Max_cycle;Signal;HPM_P1;HPM_P2
2022/01/13 00:00:57;;;;;;;;;;;9.70;60.30;;;;;;5007597;28;20337;-93
2022/01/13 00:03:23;;;;;;;;;;;9.60;60.50;;;;;;4996750;28;19968;-90
2022/01/13 00:05:48;;;;;;;;;;;9.70;60.40;;;;;;5012888;28;19940;-90
2022/01/13 00:08:14;;;;;;;;;;;9.80;60.50;;;;;;5011732;28;20346;-91
2022/01/13 00:10:39;;;;;;;;;;;9.80;60.30;;;;;;4998437;28;20010;-88
2022/01/13 00:13:07;;;;;;;;;;;9.80;60.30;;;;;;4994816;28;19980;-89
2022/01/13 00:15:49;;;;;;;;;;;9.80;60.20;;;;;;4994330;28;19929;-90
2022/01/13 00:18:38;;;;;;;;;;;9.80;60.00;;;;;;4983340;28;20020;-90
2022/01/13 00:24:03;;;;;;;;;;;9.90;60.40;;;;;;4972984;28;19952;-90
2022/01/13 00:26:31;;;;;;;;;;;9.90;60.40;;;;;;4994489;28;20398;-89
2022/01/13 00:29:01;;;;;;;;;;;9.90;60.20;;;;;;4995294;28;20389;-89
2022/01/13 00:31:29;;;;;;;;;;;9.90;60.30;;;;;;4989418;28;19915;-90
2022/01/13 00:33:55;;;;;;;;;;;9.90;60.30;;;;;;4959568;28;19918;-89
2022/01/13 00:36:21;;;;;;;;;;;9.90;60.30;;;;;;4959242;28;20008;-90
2022/01/13 00:38:47;;;;;;;;;;;10.00;60.40;;;;;;4959869;28;19914;-90
2022/01/13 00:41:12;;;;;;;;;;;10.00;60.30;;;;;;4957865;28;20439;-90
2022/01/13 00:43:40;;;;;;;;;;;10.00;60.50;;;;;;4973336;28;20382;-89
2022/01/13 00:46:06;;;;;;;;;;;10.00;60.30;;;;;;4993296;28;19922;-90
2022/01/13 00:48:32;;;;;;;;;;;10.00;60.30;;;;;;4991318;28;19933;-90
2022/01/13 00:50:57;;;;;;;;;;;10.00;60.30;;;;;;4992580;28;19921;-90
2022/01/13 00:53:23;;;;;;;;;;;10.00;60.30;;;;;;4998347;28;19926;-90
2022/01/13 00:55:57;;;;;;;;;;;10.00;60.40;;;;;;4993173;28;20282;-90
2022/01/13 00:58:24;;;;;;;;;;;10.00;60.30;;;;;;4991134;28;19921;-91
2022/01/13 01:00:49;;;;;;;;;;;10.00;60.40;;;;;;4991626;28;19934;-89
2022/01/13 01:03:15;;;;;;;;;;;10.10;60.30;;;;;;4992603;28;19944;-90
2022/01/13 01:05:40;;;;;;;;;;;10.10;60.60;;;;;;4993969;28;19922;-89
2022/01/13 01:08:06;;;;;;;;;;;10.10;60.30;;;;;;4992032;28;20420;-89
2022/01/13 01:10:32;;;;;;;;;;;10.10;60.30;;;;;;4992136;28;19928;-89
2022/01/13 01:12:59;;;;;;;;;;;10.10;60.30;;;;;;4994236;28;19917;-89
2022/01/13 01:15:25;;;;;;;;;;;10.10;60.30;;;;;;4997192;28;20008;-89
2022/01/13 01:17:53;;;;;;;;;;;10.20;60.10;;;;;;4994191;28;20005;-90
2022/01/13 01:20:19;;;;;;;;;;;10.20;60.20;;;;;;4993875;28;19921;-90
2022/01/13 01:25:43;;;;;;;;;;;10.20;60.10;;;;;;4994364;28;20254;-90
2022/01/13 01:28:12;;;;;;;;;;;10.20;60.20;;;;;;4994765;28;19920;-89
2022/01/13 01:30:42;;;;;;;;;;;10.20;60.10;;;;;;4992848;28;20393;-89
2022/01/13 01:33:07;;;;;;;;;;;10.10;60.00;;;;;;5007748;28;19922;-89
2022/01/13 01:35:33;;;;;;;;;;;10.10;60.20;;;;;;4992311;28;19926;-89
2022/01/13 01:37:58;;;;;;;;;;;10.10;60.00;;;;;;4977212;28;19925;-89
2022/01/13 01:40:24;;;;;;;;;;;10.10;60.00;;;;;;4980158;28;19922;-91
2022/01/13 01:42:50;;;;;;;;;;;10.10;60.10;;;;;;4975110;28;19918;-89
2022/01/13 01:45:16;;;;;;;;;;;10.10;60.10;;;;;;5009444;28;19930;-90
2022/01/13 01:47:43;;;;;;;;;;;10.10;60.20;;;;;;4995003;28;19981;-90
2022/01/13 01:50:17;;;;;;;;;;;10.10;60.20;;;;;;4992532;28;19923;-90
2022/01/13 01:52:42;;;;;;;;;;;10.10;60.30;;;;;;4995470;28;19918;-89
2022/01/13 01:55:08;;;;;;;;;;;10.10;60.50;;;;;;4995819;28;19924;-89
2022/01/13 01:57:34;;;;;;;;;;;10.20;60.20;;;;;;4985159;28;20010;-90
2022/01/13 01:59:59;;;;;;;;;;;10.10;60.20;;;;;;5006108;28;19922;-89
2022/01/13 02:02:27;;;;;;;;;;;10.20;60.40;;;;;;5005562;28;19918;-90
2022/01/13 02:04:52;;;;;;;;;;;10.20;60.60;;;;;;5008555;28;20361;-90
2022/01/13 02:07:18;;;;;;;;;;;10.30;60.70;;;;;;4992565;28;19913;-90
2022/01/13 02:09:51;;;;;;;;;;;10.30;60.50;;;;;;4973861;28;20365;-90
2022/01/13 02:12:29;;;;;;;;;;;10.30;60.60;;;;;;5010035;28;19917;-90
2022/01/13 02:14:59;;;;;;;;;;;10.30;60.50;;;;;;4976945;28;20365;-90
2022/01/13 02:17:27;;;;;;;;;;;10.30;60.30;;;;;;4990908;28;19917;-89
2022/01/13 02:19:54;;;;;;;;;;;10.40;60.20;;;;;;4992352;28;19926;-90
2022/01/13 02:22:20;;;;;;;;;;;10.30;59.90;;;;;;4976996;28;19910;-89
2022/01/13 02:24:46;;;;;;;;;;;10.30;59.80;;;;;;4994977;28;19953;-91
2022/01/13 02:27:11;;;;;;;;;;;10.30;59.80;;;;;;4992669;28;19968;-90
2022/01/13 02:29:36;;;;;;;;;;;10.30;59.90;;;;;;4992148;28;20386;-89
2022/01/13 02:32:03;;;;;;;;;;;10.30;59.90;;;;;;4991968;28;19922;-89
2022/01/13 02:34:29;;;;;;;;;;;10.30;59.90;;;;;;4997951;28;19922;-89
2022/01/13 02:36:55;;;;;;;;;;;10.30;60.10;;;;;;4996517;28;20104;-90
2022/01/13 02:39:21;;;;;;;;;;;10.30;60.00;;;;;;4995728;28;19921;-90
2022/01/13 02:41:47;;;;;;;;;;;10.30;60.00;;;;;;4995848;28;19914;-90
2022/01/13 02:44:19;;;;;;;;;;;10.30;59.90;;;;;;4998073;28;20267;-90
2022/01/13 02:49:14;;;;;;;;;;;10.20;59.80;;;;;;4998212;28;19926;-90
2022/01/13 02:51:41;;;;;;;;;;;10.20;59.90;;;;;;4977118;28;19918;-89
2022/01/13 02:54:07;;;;;;;;;;;10.20;60.00;;;;;;4995269;28;19922;-90
2022/01/13 02:56:33;;;;;;;;;;;10.20;60.10;;;;;;4993630;28;19925;-91
2022/01/13 02:58:59;;;;;;;;;;;10.10;60.00;;;;;;4977047;28;19921;-90
2022/01/13 03:01:24;;;;;;;;;;;10.20;60.30;;;;;;4993046;28;20437;-90
2022/01/13 03:03:50;;;;;;;;;;;10.20;60.30;;;;;;4994948;28;21812;-90
2022/01/13 03:06:16;;;;;;;;;;;10.20;60.50;;;;;;4993459;28;19932;-90
2022/01/13 03:08:43;;;;;;;;;;;10.20;60.40;;;;;;4994206;28;20008;-90
2022/01/13 03:11:09;;;;;;;;;;;10.20;60.30;;;;;;4976514;28;19987;-89
2022/01/13 03:13:34;;;;;;;;;;;10.20;60.20;;;;;;4989927;28;19921;-90
2022/01/13 03:16:04;;;;;;;;;;;10.20;60.20;;;;;;4993497;28;19917;-90
2022/01/13 03:18:29;;;;;;;;;;;10.20;60.20;;;;;;4977372;28;19918;-90
2022/01/13 03:20:55;;;;;;;;;;;10.20;60.10;;;;;;4993421;28;19988;-90
2022/01/13 03:23:20;;;;;;;;;;;10.20;60.10;;;;;;4993600;28;20330;-90
2022/01/13 03:25:46;;;;;;;;;;;10.10;60.40;;;;;;5009913;28;20372;-90
2022/01/13 03:28:17;;;;;;;;;;;10.20;60.20;;;;;;4993662;28;20357;-91
2022/01/13 03:30:46;;;;;;;;;;;10.10;59.90;;;;;;4994119;28;19918;-91
2022/01/13 03:33:12;;;;;;;;;;;10.10;59.90;;;;;;4992717;28;19930;-90
2022/01/13 03:35:38;;;;;;;;;;;10.10;59.80;;;;;;4993121;28;19918;-90
2022/01/13 03:38:04;;;;;;;;;;;9.90;59.90;;;;;;4975446;28;20416;-91
2022/01/13 03:40:31;;;;;;;;;;;9.90;60.00;;;;;;4975669;28;19925;-91
2022/01/13 03:42:57;;;;;;;;;;;9.90;60.00;;;;;;4991968;28;19925;-89
2022/01/13 03:45:23;;;;;;;;;;;9.90;60.00;;;;;;4992166;28;19930;-91
2022/01/13 03:47:48;;;;;;;;;;;9.90;60.10;;;;;;4992279;28;19929;-89
2022/01/13 03:50:14;;;;;;;;;;;9.90;60.20;;;;;;4992019;28;20524;-90
2022/01/13 03:53:03;;;;;;;;;;;9.90;60.30;;;;;;4991623;28;19921;-90
2022/01/13 03:55:31;;;;;;;;;;;9.90;60.40;;;;;;4991640;28;19921;-90
2022/01/13 03:58:06;;;;;;;;;;;9.90;60.30;;;;;;4992484;28;19997;-89
2022/01/13 04:00:40;;;;;;;;;;;9.90;60.40;;;;;;4991840;28;20300;-90
2022/01/13 04:03:06;;;;;;;;;;;9.90;60.30;;;;;;4991088;28;19918;-90
2022/01/13 04:05:32;;;;;;;;;;;9.90;60.30;;;;;;4975601;28;19921;-90
2022/01/13 04:07:57;;;;;;;;;;;9.90;60.40;;;;;;4991581;28;20285;-90
2022/01/13 04:10:51;;;;;;;;;;;9.90;60.40;;;;;;4993927;28;19965;-90
2022/01/13 04:13:43;;;;;;;;;;;9.90;60.60;;;;;;4992464;28;19918;-91
2022/01/13 04:16:08;;;;;;;;;;;10.00;60.70;;;;;;4989498;28;20346;-90
2022/01/13 04:18:34;;;;;;;;;;;10.00;60.60;;;;;;5008439;28;19918;-91
2022/01/13 04:21:00;;;;;;;;;;;10.00;60.80;;;;;;4992180;28;20024;-91
2022/01/13 04:23:25;;;;;;;;;;;10.10;60.80;;;;;;4978524;28;19936;-90
2022/01/13 04:25:51;;;;;;;;;;;10.10;60.70;;;;;;4992101;28;20004;-90
2022/01/13 04:28:17;;;;;;;;;;;10.20;60.70;;;;;;4978723;28;19918;-91
2022/01/13 04:33:08;;;;;;;;;;;10.20;60.30;;;;;;4993183;28;19972;-90
2022/01/13 04:35:34;;;;;;;;;;;10.20;60.30;;;;;;4992830;28;20019;-90
2022/01/13 04:38:00;;;;;;;;;;;10.10;60.10;;;;;;4972640;28;19918;-90
2022/01/13 04:40:25;;;;;;;;;;;10.10;60.20;;;;;;5004681;28;20378;-90
2022/01/13 04:42:54;;;;;;;;;;;10.10;60.10;;;;;;5007644;28;19922;-90
2022/01/13 04:45:20;;;;;;;;;;;10.00;60.30;;;;;;4990714;28;20452;-89
2022/01/13 04:47:47;;;;;;;;;;;10.00;60.40;;;;;;4991239;28;20009;-90
2022/01/13 04:50:12;;;;;;;;;;;10.10;60.30;;;;;;4993002;28;20370;-90
2022/01/13 04:52:38;;;;;;;;;;;10.10;60.50;;;;;;4992409;28;19952;-90
2022/01/13 04:55:09;;;;;;;;;;;10.10;60.60;;;;;;4992980;28;20015;-90
2022/01/13 04:57:35;;;;;;;;;;;10.10;60.60;;;;;;4975038;28;19964;-90
2022/01/13 05:00:02;;;;;;;;;;;10.10;60.40;;;;;;4974562;28;20447;-90
2022/01/13 05:02:27;;;;;;;;;;;10.00;60.60;;;;;;4974317;28;19965;-89
2022/01/13 05:04:53;;;;;;;;;;;10.10;60.60;;;;;;4991334;28;19929;-90
2022/01/13 05:07:18;;;;;;;;;;;10.10;60.60;;;;;;4989834;28;20440;-89
2022/01/13 05:09:44;;;;;;;;;;;10.00;60.70;;;;;;4990974;28;20222;-90
2022/01/13 05:12:09;;;;;;;;;;;10.10;60.60;;;;;;4993037;28;19944;-91
2022/01/13 05:14:35;;;;;;;;;;;10.10;60.50;;;;;;4991036;28;19972;-90
2022/01/13 05:17:23;;;;;;;;;;;10.10;60.50;;;;;;4992163;28;19944;-90
2022/01/13 05:20:07;;;;;;;;;;;10.10;60.40;;;;;;4992953;28;20370;-90
2022/01/13 05:22:33;;;;;;;;;;;10.00;60.30;;;;;;4992046;28;19924;-90
2022/01/13 05:24:58;;;;;;;;;;;10.00;60.50;;;;;;4974391;28;19926;-90
2022/01/13 05:27:24;;;;;;;;;;;10.10;60.60;;;;;;5006803;28;19962;-90
2022/01/13 05:29:50;;;;;;;;;;;10.10;60.50;;;;;;4980474;28;19922;-90
2022/01/13 05:32:15;;;;;;;;;;;10.10;60.50;;;;;;5005803;28;20348;-90
2022/01/13 05:34:40;;;;;;;;;;;10.10;60.50;;;;;;4990749;28;19933;-90
2022/01/13 05:37:06;;;;;;;;;;;10.00;60.50;;;;;;4991518;28;19925;-89
2022/01/13 05:39:31;;;;;;;;;;;10.00;60.60;;;;;;4989644;28;19921;-90
2022/01/13 05:41:57;;;;;;;;;;;10.00;60.60;;;;;;4992196;28;19924;-90
2022/01/13 05:44:22;;;;;;;;;;;10.00;60.60;;;;;;4992094;28;19921;-90
2022/01/13 05:46:48;;;;;;;;;;;10.00;60.60;;;;;;4976582;28;19926;-90
2022/01/13 05:49:13;;;;;;;;;;;10.10;60.70;;;;;;4973756;28;20021;-90
2022/01/13 05:51:38;;;;;;;;;;;10.10;60.70;;;;;;4986307;28;19921;-90
2022/01/13 05:54:04;;;;;;;;;;;10.10;60.40;;;;;;4975764;28;19922;-90
2022/01/13 05:56:29;;;;;;;;;;;10.00;60.60;;;;;;5002467;28;19969;-91
2022/01/13 05:58:55;;;;;;;;;;;10.00;60.60;;;;;;4974050;28;20024;-90
2022/01/13 06:01:20;;;;;;;;;;;10.10;60.40;;;;;;5005731;28;19940;-90
2022/01/13 06:03:46;;;;;;;;;;;10.00;60.30;;;;;;4989666;28;19917;-90
2022/01/13 06:06:11;;;;;;;;;;;10.00;60.30;;;;;;4990975;28;19914;-90
2022/01/13 06:08:37;;;;;;;;;;;10.00;60.40;;;;;;4996667;28;20341;-90
2022/01/13 06:11:02;;;;;;;;;;;10.00;60.50;;;;;;4990393;28;19918;-91
2022/01/13 06:13:28;;;;;;;;;;;10.00;60.50;;;;;;4991000;28;19964;-89
2022/01/13 06:15:53;;;;;;;;;;;10.00;60.40;;;;;;4991619;28;19925;-90
2022/01/13 06:18:19;;;;;;;;;;;10.00;60.40;;;;;;4989591;28;20032;-90
2022/01/13 06:20:44;;;;;;;;;;;10.00;60.50;;;;;;4990419;28;19922;-90
2022/01/13 06:23:11;;;;;;;;;;;10.00;60.40;;;;;;4989889;28;19953;-91
2022/01/13 06:25:37;;;;;;;;;;;10.00;60.30;;;;;;4990943;28;19964;-89
2022/01/13 06:28:03;;;;;;;;;;;9.90;60.40;;;;;;4988987;28;20294;-90
2022/01/13 06:30:30;;;;;;;;;;;9.90;60.50;;;;;;4990502;28;19930;-90
2022/01/13 06:32:55;;;;;;;;;;;9.90;60.60;;;;;;4988338;28;19918;-90
2022/01/13 06:35:20;;;;;;;;;;;9.90;60.60;;;;;;4988889;28;19958;-90
2022/01/13 06:37:46;;;;;;;;;;;9.80;60.70;;;;;;4990138;28;20362;-89
2022/01/13 06:40:12;;;;;;;;;;;9.80;60.70;;;;;;4992615;28;19929;-90
2022/01/13 06:42:38;;;;;;;;;;;9.90;60.70;;;;;;4989983;28;20338;-90
2022/01/13 06:45:04;;;;;;;;;;;9.80;60.60;;;;;;4989044;28;19957;-90
2022/01/13 06:47:30;;;;;;;;;;;9.80;60.70;;;;;;4990918;28;19918;-91
2022/01/13 06:49:55;;;;;;;;;;;9.80;60.80;;;;;;4991824;28;19929;-90
2022/01/13 06:52:21;;;;;;;;;;;9.80;60.80;;;;;;4991311;28;19925;-90
2022/01/13 06:54:46;;;;;;;;;;;9.80;60.90;;;;;;4990953;28;20397;-90
2022/01/13 06:57:11;;;;;;;;;;;9.80;60.90;;;;;;4992890;28;19924;-90
2022/01/13 06:59:37;;;;;;;;;;;9.80;60.90;;;;;;4990739;28;19964;-89
2022/01/13 07:02:03;;;;;;;;;;;9.80;60.90;;;;;;4993934;28;20000;-89
2022/01/13 07:04:28;;;;;;;;;;;9.80;60.90;;;;;;5000805;28;19921;-90
2022/01/13 07:06:54;;;;;;;;;;;9.80;60.80;;;;;;4991117;28;20029;-89
2022/01/13 07:09:21;;;;;;;;;;;9.80;60.80;;;;;;4991559;28;20254;-89
2022/01/13 07:11:46;;;;;;;;;;;9.80;60.80;;;;;;4977894;28;19921;-90
2022/01/13 07:14:12;;;;;;;;;;;9.80;60.80;;;;;;4992068;28;19918;-90
2022/01/13 07:16:39;;;;;;;;;;;9.80;60.90;;;;;;4992409;28;19917;-89
2022/01/13 07:19:04;;;;;;;;;;;9.90;61.10;;;;;;4990895;28;19933;-90
2022/01/13 07:21:30;;;;;;;;;;;9.90;61.20;;;;;;4994222;28;19917;-90
2022/01/13 07:23:55;;;;;;;;;;;9.90;61.10;;;;;;4995492;28;19922;-90
2022/01/13 07:26:21;;;;;;;;;;;9.90;60.80;;;;;;4994829;28;19913;-90
2022/01/13 07:28:47;;;;;;;;;;;9.90;60.80;;;;;;4979888;28;20267;-89
2022/01/13 07:31:14;;;;;;;;;;;9.90;60.80;;;;;;4999685;28;19985;-89
2022/01/13 07:33:40;;;;;;;;;;;9.90;60.90;;;;;;4994120;28;19918;-89
2022/01/13 07:36:05;;;;;;;;;;;9.90;60.80;;;;;;4993185;28;20007;-90
2022/01/13 07:38:31;;;;;;;;;;;9.90;60.80;;;;;;4996949;28;19961;-90
2022/01/13 07:40:56;;;;;;;;;;;10.00;60.70;;;;;;4977790;28;20370;-89
2022/01/13 07:43:24;;;;;;;;;;;9.90;60.70;;;;;;4995618;28;19973;-90
2022/01/13 07:45:50;;;;;;;;;;;9.90;60.60;;;;;;4996140;28;19930;-89
2022/01/13 07:48:16;;;;;;;;;;;9.90;60.70;;;;;;4994279;28;20013;-91
2022/01/13 07:50:42;;;;;;;;;;;9.90;60.60;;;;;;4995134;28;19928;-90
2022/01/13 07:53:07;;;;;;;;;;;9.90;60.90;;;;;;4994905;28;19918;-89
2022/01/13 07:55:33;;;;;;;;;;;9.90;60.70;;;;;;4996050;28;19922;-89
2022/01/13 07:57:58;;;;;;;;;;;9.90;60.60;;;;;;4996019;28;20005;-90
2022/01/13 08:00:23;;;;;;;;;;;9.90;60.70;;;;;;4994878;28;19977;-89
2022/01/13 08:02:49;;;;;;;;;;;9.90;60.80;;;;;;4997097;28;19925;-89
2022/01/13 08:05:14;;;;;;;;;;;9.90;61.00;;;;;;4995777;28;19929;-89
2022/01/13 08:07:40;;;;;;;;;;;9.90;60.80;;;;;;4978425;28;19964;-90
2022/01/13 08:10:06;;;;;;;;;;;9.90;60.90;;;;;;4998172;28;20398;-90
2022/01/13 08:12:31;;;;;;;;;;;9.90;60.80;;;;;;4980258;28;20004;-89
2022/01/13 08:14:57;;;;;;;;;;;10.00;60.70;;;;;;4978542;28;19948;-89
2022/01/13 08:20:08;;;;;;;;;;;10.00;60.80;;;;;;4997225;28;19924;-90
2022/01/13 08:22:33;;;;;;;;;;;10.00;60.90;;;;;;4994373;28;19925;-90
2022/01/13 08:24:59;;;;;;;;;;;10.00;60.80;;;;;;4997028;28;20273;-90
2022/01/13 08:27:24;;;;;;;;;;;10.00;60.80;;;;;;4995649;28;20004;-90
2022/01/13 08:29:50;;;;;;;;;;;10.00;60.90;;;;;;4997208;28;19909;-89
2022/01/13 08:32:18;;;;;;;;;;;10.00;60.60;;;;;;4994318;28;20580;-89
2022/01/13 08:34:44;;;;;;;;;;;10.10;60.70;;;;;;4996167;28;19928;-90
2022/01/13 08:37:09;;;;;;;;;;;10.10;60.70;;;;;;4995403;28;19922;-89
2022/01/13 08:39:42;;;;;;;;;;;10.10;60.80;;;;;;4992821;28;19918;-89
2022/01/13 08:42:07;;;;;;;;;;;10.10;61.00;;;;;;4975704;28;19914;-89
2022/01/13 08:44:33;;;;;;;;;;;10.20;61.10;;;;;;4978226;28;19926;-90
2022/01/13 08:46:58;;;;;;;;;;;10.20;61.00;;;;;;4974881;28;20379;-90
2022/01/13 08:49:24;;;;;;;;;;;10.30;60.70;;;;;;4991553;28;19917;-90
2022/01/13 08:51:51;;;;;;;;;;;10.20;60.30;;;;;;4992315;28;20370;-90
2022/01/13 08:54:19;;;;;;;;;;;10.10;60.40;;;;;;4974000;28;19914;-90
2022/01/13 08:56:45;;;;;;;;;;;10.10;60.60;;;;;;4974032;28;19966;-89
2022/01/13 08:59:10;;;;;;;;;;;10.10;60.60;;;;;;4985051;28;19914;-90
2022/01/13 09:01:36;;;;;;;;;;;10.10;60.70;;;;;;4987423;28;19988;-90
2022/01/13 09:04:01;;;;;;;;;;;10.20;60.90;;;;;;4987905;28;19971;-91
2022/01/13 09:06:27;;;;;;;;;;;10.20;60.90;;;;;;4983285;28;20017;-90
2022/01/13 09:08:52;;;;;;;;;;;10.20;60.90;;;;;;4984343;28;19918;-90
2022/01/13 09:11:18;;;;;;;;;;;10.30;60.80;;;;;;4988733;28;20282;-90
2022/01/13 09:13:43;;;;;;;;;;;10.30;60.70;;;;;;4983953;28;19918;-91
2022/01/13 09:16:16;;;;;;;;;;;10.30;60.60;;;;;;4981499;28;20247;-90
2022/01/13 09:21:15;;;;;;;;;;;10.30;60.70;;;;;;4984589;28;19930;-91
2022/01/13 09:23:41;;;;;;;;;;;10.30;60.80;;;;;;4969640;28;20322;-90
2022/01/13 09:26:06;;;;;;;;;;;10.40;60.70;;;;;;4982912;28;19965;-92
2022/01/13 09:28:33;;;;;;;;;;;10.30;60.70;;;;;;4984892;28;20385;-90
2022/01/13 09:30:58;;;;;;;;;;;10.30;60.40;;;;;;4968771;28;20377;-91
2022/01/13 09:33:25;;;;;;;;;;;10.30;60.50;;;;;;4989800;28;19921;-90
2022/01/13 09:35:50;;;;;;;;;;;10.30;60.50;;;;;;4987834;28;19926;-91
2022/01/13 09:38:16;;;;;;;;;;;10.40;60.90;;;;;;4980667;28;19941;-90
2022/01/13 09:40:42;;;;;;;;;;;10.40;60.80;;;;;;4984405;28;19954;-91
2022/01/13 09:43:08;;;;;;;;;;;10.40;60.60;;;;;;4981105;28;19918;-90
2022/01/13 09:45:34;;;;;;;;;;;10.40;60.70;;;;;;4985459;28;20025;-90
2022/01/13 09:47:59;;;;;;;;;;;10.40;60.70;;;;;;4981407;28;19950;-91
2022/01/13 09:50:25;;;;;;;;;;;10.50;60.70;;;;;;4984841;28;20304;-91
2022/01/13 09:52:50;;;;;;;;;;;10.50;60.80;;;;;;4982172;28;20390;-91
2022/01/13 09:55:16;;;;;;;;;;;10.50;61.00;;;;;;4982477;28;20598;-90
2022/01/13 09:57:43;;;;;;;;;;;10.60;61.00;;;;;;4982506;28;20021;-91
2022/01/13 10:00:09;;;;;;;;;;;10.60;60.70;;;;;;4986462;28;20448;-90
2022/01/13 10:02:35;;;;;;;;;;;10.60;60.50;;;;;;4979873;28;20362;-89
2022/01/13 10:05:00;;;;;;;;;;;10.60;60.50;;;;;;4984017;28;19924;-90
2022/01/13 10:07:45;;;;;;;;;;;10.60;60.40;;;;;;4982064;28;19918;-89
2022/01/13 10:10:14;;;;;;;;;;;10.60;60.50;;;;;;4971248;28;19917;-91
2022/01/13 10:12:41;;;;;;;;;;;10.60;60.80;;;;;;4972498;28;19933;-90
2022/01/13 10:17:44;;;;;;;;;;;10.60;60.30;;;;;;4984812;28;19929;-90
2022/01/13 10:20:11;;;;;;;;;;;10.50;60.30;;;;;;4985873;28;19914;-90
2022/01/13 10:22:36;;;;;;;;;;;10.50;60.20;;;;;;4962543;28;20394;-89
2022/01/13 10:25:02;;;;;;;;;;;10.50;60.30;;;;;;4984131;28;19953;-91
2022/01/13 10:27:29;;;;;;;;;;;10.50;60.50;;;;;;4984957;28;19914;-90
2022/01/13 10:29:56;;;;;;;;;;;10.50;60.60;;;;;;4985578;28;19933;-90
2022/01/13 10:32:25;;;;;;;;;;;10.60;60.50;;;;;;4980032;28;19957;-90
2022/01/13 10:34:55;;;;;;;;;;;10.60;60.60;;;;;;4983841;28;19922;-90
2022/01/13 10:37:27;;;;;;;;;;;10.70;60.90;;;;;;4986200;28;19925;-91
2022/01/13 10:39:53;;;;;;;;;;;10.70;60.80;;;;;;4971355;28;20336;-91
2022/01/13 10:45:03;;;;;;;;;;;10.80;60.50;;;;;;4981804;28;20378;-90
2022/01/13 10:47:30;;;;;;;;;;;10.80;60.70;;;;;;4981939;28;19920;-90
2022/01/13 10:50:05;;;;;;;;;;;10.80;60.60;;;;;;4980632;28;19922;-90
2022/01/13 10:52:30;;;;;;;;;;;10.80;60.30;;;;;;4963554;28;19977;-92
2022/01/13 10:55:07;;;;;;;;;;;10.80;60.30;;;;;;4984878;28;20001;-91
2022/01/13 10:57:33;;;;;;;;;;;10.80;60.40;;;;;;4993561;28;19914;-90
2022/01/13 10:59:59;;;;;;;;;;;10.80;60.50;;;;;;4993197;28;19977;-92
2022/01/13 11:02:25;;;;;;;;;;;10.90;60.60;;;;;;4989433;28;20262;-91
2022/01/13 11:04:54;;;;;;;;;;;10.90;60.40;;;;;;4973386;28;20396;-92
2022/01/13 11:07:24;;;;;;;;;;;11.00;60.60;;;;;;4983392;28;19914;-91
2022/01/13 11:10:01;;;;;;;;;;;11.00;60.60;;;;;;4964924;28;19976;-92
2022/01/13 11:12:31;;;;;;;;;;;11.00;60.60;;;;;;4986745;28;19928;-92
2022/01/13 11:15:04;;;;;;;;;;;11.10;60.30;;;;;;4984587;28;20425;-91
2022/01/13 11:17:30;;;;;;;;;;;11.00;60.20;;;;;;4989001;28;19913;-92
2022/01/13 11:19:56;;;;;;;;;;;11.10;60.50;;;;;;4989611;28;19982;-90
2022/01/13 11:22:21;;;;;;;;;;;11.20;60.30;;;;;;4978114;28;19964;-91
2022/01/13 11:24:47;;;;;;;;;;;11.20;60.30;;;;;;4991353;28;20024;-91
2022/01/13 11:27:14;;;;;;;;;;;11.20;60.40;;;;;;4973262;28;20309;-90
2022/01/13 11:29:44;;;;;;;;;;;11.20;60.10;;;;;;4994348;28;19918;-93
2022/01/13 11:32:11;;;;;;;;;;;11.20;59.90;;;;;;4995930;28;19965;-90
2022/01/13 11:34:38;;;;;;;;;;;11.20;60.00;;;;;;4988636;28;19925;-89
2022/01/13 11:37:03;;;;;;;;;;;11.20;60.20;;;;;;4989964;28;19918;-92
2022/01/13 11:39:37;;;;;;;;;;;11.30;60.20;;;;;;4994345;28;20056;-92
2022/01/13 11:42:04;;;;;;;;;;;11.30;59.90;;;;;;4992638;28;20405;-91
2022/01/13 11:44:30;;;;;;;;;;;11.30;60.00;;;;;;4995830;28;20008;-91
2022/01/13 11:46:56;;;;;;;;;;;11.30;59.80;;;;;;4996533;28;19972;-91
2022/01/13 11:49:36;;;;;;;;;;;11.30;59.80;;;;;;4996330;28;20425;-91
2022/01/13 11:52:12;;;;;;;;;;;11.30;60.00;;;;;;4981187;28;19950;-91
2022/01/13 11:54:38;;;;;;;;;;;11.40;60.20;;;;;;4988985;28;19925;-91
2022/01/13 11:57:06;;;;;;;;;;;11.50;60.40;;;;;;4980087;28;19922;-92
2022/01/13 11:59:32;;;;;;;;;;;11.50;60.40;;;;;;4996722;28;20373;-90
2022/01/13 12:02:16;;;;;;;;;;;11.50;59.70;;;;;;4996855;28;19941;-91
2022/01/13 12:04:58;;;;;;;;;;;11.50;59.60;;;;;;4998544;28;19918;-91
2022/01/13 12:07:34;;;;;;;;;;;11.50;59.60;;;;;;4980942;28;20360;-91
2022/01/13 12:10:00;;;;;;;;;;;11.50;59.70;;;;;;4980893;28;20381;-91
2022/01/13 12:12:30;;;;;;;;;;;11.50;59.60;;;;;;4985141;28;19984;-92
2022/01/13 12:15:13;;;;;;;;;;;11.50;59.90;;;;;;4980650;28;19922;-88
2022/01/13 12:17:49;;;;;;;;;;;11.60;60.00;;;;;;4993238;28;19917;-90
2022/01/13 12:20:52;;;;;;;;;;;11.70;60.20;;;;;;4996807;28;19918;-90
2022/01/13 12:23:36;;;;;;;;;;;11.70;60.20;;;;;;4999992;28;19924;-91
2022/01/13 12:26:02;;;;;;;;;;;11.80;60.20;;;;;;4984883;28;19918;-90
2022/01/13 12:28:28;;;;;;;;;;;11.80;59.80;;;;;;5001690;28;19918;-90
2022/01/13 12:30:53;;;;;;;;;;;11.80;59.60;;;;;;5000710;28;19922;-93
2022/01/13 12:33:32;;;;;;;;;;;11.80;59.10;;;;;;5000466;28;19964;-92
2022/01/13 12:35:57;;;;;;;;;;;11.70;59.10;;;;;;5004426;28;19965;-93
2022/01/13 12:38:23;;;;;;;;;;;11.70;59.60;;;;;;5015954;28;19932;-93
2022/01/13 12:41:02;;;;;;;;;;;11.80;59.20;;;;;;5002584;28;19921;-92
2022/01/13 12:46:13;;;;;;;;;;;11.80;59.40;;;;;;5000800;28;20040;-90
2022/01/13 12:48:39;;;;;;;;;;;11.80;59.50;;;;;;5017364;28;19925;-92
2022/01/13 12:51:05;;;;;;;;;;;11.80;59.70;;;;;;5001744;28;20274;-91
2022/01/13 12:53:32;;;;;;;;;;;11.80;59.70;;;;;;5006543;28;19976;-92
2022/01/13 12:56:06;;;;;;;;;;;11.90;59.80;;;;;;4994691;28;19920;-92
2022/01/13 12:58:36;;;;;;;;;;;12.00;59.70;;;;;;5002067;28;19940;-91
2022/01/13 13:01:05;;;;;;;;;;;12.00;59.60;;;;;;5007787;28;19944;-93
2022/01/13 13:03:30;;;;;;;;;;;11.90;59.10;;;;;;5014688;28;20016;-92
2022/01/13 13:05:56;;;;;;;;;;;11.90;58.90;;;;;;4990693;28;19960;-91
2022/01/13 13:08:22;;;;;;;;;;;11.80;59.00;;;;;;4993877;28;19918;-92
2022/01/13 13:10:50;;;;;;;;;;;11.80;58.80;;;;;;5006355;28;20269;-94
2022/01/13 13:13:19;;;;;;;;;;;11.80;59.10;;;;;;5013892;28;19937;-94
2022/01/13 13:15:51;;;;;;;;;;;11.80;58.90;;;;;;4990679;28;19921;-93
2022/01/13 13:18:18;;;;;;;;;;;11.80;58.80;;;;;;5000819;28;19914;-93
2022/01/13 13:20:44;;;;;;;;;;;11.70;58.80;;;;;;5011641;28;19922;-94
2022/01/13 13:23:10;;;;;;;;;;;11.70;58.80;;;;;;4997910;28;19946;-93
2022/01/13 13:25:36;;;;;;;;;;;11.70;59.20;;;;;;5006345;28;19909;-93
2022/01/13 13:28:23;;;;;;;;;;;11.80;59.50;;;;;;5012456;28;19921;-92
2022/01/13 13:30:49;;;;;;;;;;;11.80;59.40;;;;;;4996052;28;19945;-93
2022/01/13 13:33:15;;;;;;;;;;;11.70;59.40;;;;;;5000863;28;19926;-94
2022/01/13 13:35:41;;;;;;;;;;;11.80;59.20;;;;;;5014605;28;19964;-93
2022/01/13 13:38:10;;;;;;;;;;;11.70;59.40;;;;;;5003649;28;20439;-92
2022/01/13 13:40:41;;;;;;;;;;;11.70;59.00;;;;;;5001188;28;20358;-93
2022/01/13 13:43:07;;;;;;;;;;;11.70;58.80;;;;;;5010943;28;19906;-95
2022/01/13 13:45:32;;;;;;;;;;;11.60;58.50;;;;;;5038896;28;19917;-92
2022/01/13 13:47:59;;;;;;;;;;;11.50;58.40;;;;;;5010864;28;19945;-91
2022/01/13 13:50:29;;;;;;;;;;;11.40;58.80;;;;;;5016401;28;19910;-91
2022/01/13 13:53:05;;;;;;;;;;;11.40;59.10;;;;;;4992782;28;20386;-92
2022/01/13 13:55:32;;;;;;;;;;;11.40;59.40;;;;;;4997700;28;19917;-92
2022/01/13 13:57:57;;;;;;;;;;;11.50;59.50;;;;;;5006256;28;19917;-93
2022/01/13 14:00:24;;;;;;;;;;;11.40;59.50;;;;;;5010456;28;20531;-92
2022/01/13 14:02:53;;;;;;;;;;;11.50;59.40;;;;;;5003479;28;19918;-94
2022/01/13 14:05:21;;;;;;;;;;;11.50;59.20;;;;;;5009591;28;19909;-94
2022/01/13 14:07:48;;;;;;;;;;;11.40;59.00;;;;;;5033295;28;19918;-94
2022/01/13 14:10:15;;;;;;;;;;;11.40;59.50;;;;;;4982260;28;19913;-93
2022/01/13 14:12:42;;;;;;;;;;;11.40;59.50;;;;;;4994671;28;20630;-94
2022/01/13 14:15:14;;;;;;;;;;;11.40;59.40;;;;;;4995895;28;19945;-93
2022/01/13 14:17:40;;;;;;;;;;;11.40;59.30;;;;;;5009229;28;19925;-93
2022/01/13 14:20:07;;;;;;;;;;;11.40;59.30;;;;;;5013223;28;19917;-94
2022/01/13 14:22:35;;;;;;;;;;;11.40;59.50;;;;;;5001110;28;20347;-95
2022/01/13 14:25:01;;;;;;;;;;;11.40;59.50;;;;;;4978932;28;19918;-93
2022/01/13 14:27:27;;;;;;;;;;;11.40;59.30;;;;;;4987382;28;20012;-93
2022/01/13 14:29:54;;;;;;;;;;;11.40;59.50;;;;;;5008879;28;20385;-95
2022/01/13 14:32:21;;;;;;;;;;;11.40;59.40;;;;;;4998719;28;19948;-93
2022/01/13 14:34:48;;;;;;;;;;;11.40;59.40;;;;;;5001111;28;19910;-93
2022/01/13 14:37:14;;;;;;;;;;;11.40;59.30;;;;;;4999097;28;19949;-95
2022/01/13 14:39:40;;;;;;;;;;;11.40;59.20;;;;;;4990110;28;19918;-92
2022/01/13 14:42:14;;;;;;;;;;;11.40;59.10;;;;;;5003833;28;19925;-93
2022/01/13 14:44:40;;;;;;;;;;;11.30;59.20;;;;;;5003348;28;19918;-93